CPA102 YBBN-VHHX
Flight info
| Callsign | CPA102 |
|---|---|
| Flight time | N/A |
| Altitude | 36000 |
| Route | BIXAD2/19R BIXAD Q67 RUMKA/N0469F380 Q67 UPOLO DCT MEMOS B473 SAMGE/N0458F400 B473 LIGPA DCT MIA W16 AVMUP A461 NOMAN |
| Aircraft | A343/H-SDE2E3FGHIJ4J5M1RWXY/LB1D1 |
Departure
| Time | N/A |
|---|---|
| Airport | Brisbane International Airport (YBBN) |
Arrival
| Time | 2026-05-06 23:06 |
|---|---|
| Airport | Hong Kong International Airport Kai Tak (VHHX) |
| Time | Latitude | Longitude | Altitude | Speed | Heading |
|---|---|---|---|---|---|
| 2026-05-06 22:49 | 22.25821 | 114.26776 | 3473 ft | 215 kts | 134° |
| 2026-05-06 22:49 | 22.24776 | 114.27935 | 3735 ft | 216 kts | 135° |
| 2026-05-06 22:49 | 22.23728 | 114.29099 | 4003 ft | 217 kts | 135° |
| 2026-05-06 22:50 | 22.22703 | 114.30302 | 4263 ft | 219 kts | 133° |
| 2026-05-06 22:50 | 22.21684 | 114.31530 | 4556 ft | 220 kts | 134° |
| 2026-05-06 22:50 | 22.20480 | 114.32550 | 4818 ft | 221 kts | 154° |
| 2026-05-06 22:50 | 22.19029 | 114.32967 | 5075 ft | 219 kts | 180° |
| 2026-05-06 22:51 | 22.17578 | 114.32534 | 5346 ft | 219 kts | 212° |
| 2026-05-06 22:51 | 22.16586 | 114.31319 | 5618 ft | 221 kts | 245° |
| 2026-05-06 22:51 | 22.16398 | 114.29681 | 5884 ft | 226 kts | 272° |
| 2026-05-06 22:51 | 22.16598 | 114.28010 | 5985 ft | 221 kts | 276° |
| 2026-05-06 22:52 | 22.16842 | 114.26380 | 6002 ft | 219 kts | 276° |
| 2026-05-06 22:52 | 22.17077 | 114.24759 | 5998 ft | 219 kts | 276° |
| 2026-05-06 22:52 | 22.17304 | 114.23128 | 5990 ft | 220 kts | 276° |
| 2026-05-06 22:52 | 22.17525 | 114.21496 | 5990 ft | 220 kts | 276° |
| 2026-05-06 22:53 | 22.17742 | 114.19861 | 5993 ft | 222 kts | 275° |
| 2026-05-06 22:53 | 22.17954 | 114.18240 | 5992 ft | 220 kts | 275° |
| 2026-05-06 22:53 | 22.18166 | 114.16615 | 5992 ft | 220 kts | 275° |
| 2026-05-06 22:53 | 22.18377 | 114.14984 | 5992 ft | 220 kts | 275° |
| 2026-05-06 22:54 | 22.18587 | 114.13355 | 5990 ft | 219 kts | 275° |
| 2026-05-06 22:54 | 22.18799 | 114.11727 | 5993 ft | 219 kts | 275° |
| 2026-05-06 22:54 | 22.19010 | 114.10102 | 5991 ft | 219 kts | 275° |
| 2026-05-06 22:54 | 22.19218 | 114.08471 | 5995 ft | 220 kts | 275° |
| 2026-05-06 22:55 | 22.19429 | 114.06840 | 6004 ft | 219 kts | 275° |
| 2026-05-06 22:55 | 22.19639 | 114.05214 | 5999 ft | 219 kts | 276° |
| 2026-05-06 22:55 | 22.19847 | 114.03602 | 5991 ft | 220 kts | 276° |
| 2026-05-06 22:55 | 22.20058 | 114.01965 | 5995 ft | 219 kts | 276° |
| 2026-05-06 22:56 | 22.20265 | 114.00339 | 5997 ft | 219 kts | 276° |
| 2026-05-06 22:56 | 22.20473 | 113.98719 | 5997 ft | 214 kts | 276° |
| 2026-05-06 22:56 | 22.20671 | 113.97200 | 6011 ft | 199 kts | 276° |
| 2026-05-06 22:56 | 22.20861 | 113.95731 | 5991 ft | 198 kts | 276° |
| 2026-05-06 22:57 | 22.21050 | 113.94257 | 5987 ft | 198 kts | 276° |
| 2026-05-06 22:57 | 22.21299 | 113.92796 | 5986 ft | 199 kts | 284° |
| 2026-05-06 22:57 | 22.21958 | 113.91503 | 5988 ft | 203 kts | 309° |
| 2026-05-06 22:57 | 22.23145 | 113.90689 | 5989 ft | 207 kts | 344° |
| 2026-05-06 22:58 | 22.24575 | 113.90546 | 5998 ft | 207 kts | 358° |
| 2026-05-06 22:58 | 22.26019 | 113.90572 | 5992 ft | 208 kts | 0° |
| 2026-05-06 22:58 | 22.27464 | 113.90622 | 5992 ft | 208 kts | 0° |
| 2026-05-06 22:58 | 22.28896 | 113.90831 | 5987 ft | 210 kts | 18° |
| 2026-05-06 22:59 | 22.30117 | 113.91656 | 5997 ft | 203 kts | 41° |
| 2026-05-06 22:59 | 22.31094 | 113.92649 | 5790 ft | 185 kts | 49° |
| 2026-05-06 22:59 | 22.31612 | 113.93855 | 5414 ft | 176 kts | 80° |
| 2026-05-06 22:59 | 22.31747 | 113.95146 | 5042 ft | 170 kts | 89° |
| 2026-05-06 23:00 | 22.31808 | 113.96405 | 4722 ft | 164 kts | 89° |
| 2026-05-06 23:00 | 22.31882 | 113.97605 | 4403 ft | 157 kts | 89° |
| 2026-05-06 23:00 | 22.31955 | 113.98764 | 4046 ft | 153 kts | 89° |
| 2026-05-06 23:00 | 22.32030 | 113.99918 | 3631 ft | 154 kts | 89° |
| 2026-05-06 23:01 | 22.32105 | 114.01070 | 3302 ft | 153 kts | 89° |
| 2026-05-06 23:01 | 22.32177 | 114.02172 | 3064 ft | 143 kts | 89° |
| 2026-05-06 23:01 | 22.32244 | 114.03226 | 2822 ft | 139 kts | 90° |
| 2026-05-06 23:01 | 22.32310 | 114.04239 | 2583 ft | 132 kts | 90° |
| 2026-05-06 23:02 | 22.32370 | 114.05204 | 2412 ft | 130 kts | 90° |
| 2026-05-06 23:02 | 22.32435 | 114.06181 | 2231 ft | 130 kts | 89° |
| 2026-05-06 23:02 | 22.32497 | 114.07149 | 2055 ft | 128 kts | 87° |
| 2026-05-06 23:02 | 22.32560 | 114.08107 | 1867 ft | 128 kts | 87° |
| 2026-05-06 23:03 | 22.32622 | 114.09064 | 1709 ft | 128 kts | 87° |
| 2026-05-06 23:03 | 22.32683 | 114.10022 | 1529 ft | 128 kts | 86° |
| 2026-05-06 23:03 | 22.32746 | 114.10980 | 1362 ft | 128 kts | 86° |
| 2026-05-06 23:03 | 22.32808 | 114.11936 | 1188 ft | 127 kts | 86° |
| 2026-05-06 23:04 | 22.32869 | 114.12879 | 1026 ft | 128 kts | 86° |
| 2026-05-06 23:04 | 22.32931 | 114.13839 | 845 ft | 129 kts | 86° |
| 2026-05-06 23:04 | 22.32993 | 114.14803 | 673 ft | 127 kts | 86° |
| 2026-05-06 23:04 | 22.33056 | 114.15749 | 539 ft | 125 kts | 86° |
| 2026-05-06 23:05 | 22.33114 | 114.16695 | 478 ft | 128 kts | 86° |
| 2026-05-06 23:05 | 22.33180 | 114.17660 | 391 ft | 128 kts | 90° |
| 2026-05-06 23:05 | 22.33045 | 114.18601 | 307 ft | 127 kts | 119° |
| 2026-05-06 23:05 | 22.32462 | 114.19339 | 136 ft | 133 kts | 134° |
| 2026-05-06 23:06 | 22.31842 | 114.20025 | 42 ft | 117 kts | 133° |
| 2026-05-06 23:06 | 22.31467 | 114.20443 | 37 ft | 38 kts | 134° |
| 2026-05-06 23:06 | 22.31298 | 114.20632 | 39 ft | 24 kts | 134° |
| 2026-05-06 23:06 | 22.31283 | 114.20712 | 39 ft | 11 kts | 59° |
| 2026-05-06 23:07 | 22.31343 | 114.20727 | 39 ft | 10 kts | 330° |
| 2026-05-06 23:07 | 22.31400 | 114.20671 | 39 ft | 14 kts | 314° |
| 2026-05-06 23:07 | 22.31492 | 114.20569 | 39 ft | 23 kts | 314° |
| 2026-05-06 23:07 | 22.31604 | 114.20442 | 36 ft | 24 kts | 314° |
| 2026-05-06 23:08 | 22.31723 | 114.20311 | 39 ft | 25 kts | 314° |
| 2026-05-06 23:08 | 22.31840 | 114.20180 | 39 ft | 22 kts | 314° |
| 2026-05-06 23:08 | 22.31946 | 114.20062 | 39 ft | 23 kts | 314° |
| 2026-05-06 23:08 | 22.32059 | 114.19935 | 39 ft | 24 kts | 314° |
| 2026-05-06 23:09 | 22.32176 | 114.19804 | 39 ft | 24 kts | 314° |
| 2026-05-06 23:09 | 22.32286 | 114.19682 | 39 ft | 21 kts | 314° |
| 2026-05-06 23:09 | 22.32395 | 114.19571 | 39 ft | 23 kts | 318° |
| 2026-05-06 23:09 | 22.32505 | 114.19463 | 38 ft | 18 kts | 317° |
| 2026-05-06 23:10 | 22.32581 | 114.19411 | 39 ft | 10 kts | 2° |
| 2026-05-06 23:10 | 22.32643 | 114.19455 | 39 ft | 12 kts | 43° |
| 2026-05-06 23:10 | 22.32702 | 114.19517 | 39 ft | 11 kts | 44° |
| 2026-05-06 23:10 | 22.32759 | 114.19576 | 39 ft | 8 kts | 43° |
| 2026-05-06 23:11 | 22.32798 | 114.19583 | 39 ft | 5 kts | 335° |
| 2026-05-06 23:11 | 22.32829 | 114.19555 | 39 ft | 5 kts | 315° |
| 2026-05-06 23:11 | 22.32836 | 114.19547 | 39 ft | 2 kts | 315° |
| 2026-05-06 23:11 | 22.32840 | 114.19542 | 39 ft | 0 kts | 314° |
| 2026-05-06 23:19 | 22.32640 | 114.09347 | 1664 ft | 128 kts | 87° |
| 2026-05-06 23:19 | 22.32717 | 114.10547 | 1432 ft | 128 kts | 86° |
| 2026-05-06 23:19 | 22.32792 | 114.11697 | 1224 ft | 127 kts | 86° |
| 2026-05-06 23:19 | 22.32867 | 114.12848 | 1026 ft | 128 kts | 86° |
| 2026-05-06 23:20 | 22.32910 | 114.13520 | 912 ft | 129 kts | 86° |
| 2026-05-06 23:20 | 22.32954 | 114.14190 | 790 ft | 128 kts | 86° |
| 2026-05-06 23:20 | 22.33000 | 114.14907 | 652 ft | 127 kts | 86° |
| 2026-05-06 23:20 | 22.33040 | 114.15520 | 565 ft | 127 kts | 86° |
| 2026-05-06 23:21 | 22.33069 | 114.15930 | 523 ft | 126 kts | 86° |
| 2026-05-06 23:21 | 22.33093 | 114.16358 | 499 ft | 127 kts | 86° |
| 2026-05-06 23:21 | 22.33121 | 114.16786 | 474 ft | 128 kts | 86° |
| 2026-05-06 23:21 | 22.33157 | 114.17189 | 415 ft | 129 kts | 84° |
| 2026-05-06 23:22 | 22.33180 | 114.17684 | 389 ft | 128 kts | 90° |
| 2026-05-06 23:22 | 22.33157 | 114.18255 | 325 ft | 128 kts | 95° |
| 2026-05-06 23:22 | 22.32955 | 114.18748 | 291 ft | 129 kts | 125° |
| 2026-05-06 23:22 | 22.32614 | 114.19177 | 200 ft | 133 kts | 135° |
| 2026-05-06 23:23 | 22.32227 | 114.19592 | 89 ft | 131 kts | 133° |
| 2026-05-06 23:23 | 22.31867 | 114.19995 | 40 ft | 119 kts | 132° |
| 2026-05-06 23:23 | 22.31585 | 114.20313 | 38 ft | 73 kts | 134° |
| 2026-05-06 23:23 | 22.31414 | 114.20502 | 38 ft | 37 kts | 134° |
| 2026-05-06 23:24 | 22.31272 | 114.20671 | 38 ft | 12 kts | 109° |
| 2026-05-06 23:24 | 22.31302 | 114.20732 | 38 ft | 11 kts | 37° |
| 2026-05-06 23:24 | 22.31342 | 114.20728 | 38 ft | 10 kts | 333° |
| 2026-05-06 23:24 | 22.31375 | 114.20698 | 38 ft | 11 kts | 317° |
| 2026-05-06 23:25 | 22.31416 | 114.20655 | 38 ft | 16 kts | 314° |
| 2026-05-06 23:25 | 22.32980 | 114.14600 | 718 ft | 122 kts | 86° |
| 2026-05-06 23:25 | 22.33009 | 114.15033 | 634 ft | 126 kts | 87° |
| 2026-05-06 23:25 | 22.33055 | 114.15739 | 539 ft | 125 kts | 86° |
| 2026-05-06 23:26 | 22.33096 | 114.16413 | 487 ft | 127 kts | 86° |
| 2026-05-06 23:26 | 22.33142 | 114.17036 | 427 ft | 130 kts | 85° |
| 2026-05-06 23:26 | 22.33179 | 114.17582 | 394 ft | 125 kts | 88° |
| 2026-05-06 23:28 | 22.33179 | 114.17893 | 372 ft | 130 kts | 90° |
| 2026-05-06 23:28 | 22.33110 | 114.18456 | 314 ft | 126 kts | 108° |
| 2026-05-06 23:28 | 22.32804 | 114.18962 | 236 ft | 132 kts | 128° |
| 2026-05-06 23:29 | 22.32375 | 114.19433 | 113 ft | 132 kts | 132° |
| 2026-05-06 23:29 | 22.31979 | 114.19869 | 42 ft | 125 kts | 129° |
| 2026-05-06 23:29 | 22.32814 | 114.18950 | 219 ft | 132 kts | 128° |
| 2026-05-06 23:29 | 22.33167 | 114.18158 | 341 ft | 110 kts | 92° |
| 2026-05-06 23:30 | 22.32990 | 114.18693 | 298 ft | 128 kts | 124° |
| 2026-05-06 23:30 | 22.32565 | 114.19229 | 167 ft | 133 kts | 136° |
| 2026-05-06 23:30 | 22.32112 | 114.19719 | 56 ft | 129 kts | 131° |
| 2026-05-06 23:31 | 22.31720 | 114.20163 | 38 ft | 100 kts | 134° |
| 2026-05-06 23:31 | 22.33179 | 114.17890 | 372 ft | 129 kts | 90° |
| 2026-05-06 23:31 | 22.33135 | 114.18371 | 318 ft | 127 kts | 103° |
| 2026-05-06 23:31 | 22.33178 | 114.17538 | 397 ft | 125 kts | 87° |
| 2026-05-06 23:32 | 22.33167 | 114.18152 | 346 ft | 129 kts | 92° |
| 2026-05-06 23:32 | 22.32957 | 114.18745 | 290 ft | 129 kts | 125° |
| 2026-05-06 23:32 | 22.32553 | 114.19242 | 162 ft | 133 kts | 136° |
| 2026-05-06 23:32 | 22.32120 | 114.19710 | 60 ft | 129 kts | 131° |
| 2026-05-06 23:33 | 22.31742 | 114.20138 | 39 ft | 104 kts | 134° |
| 2026-05-06 23:33 | 22.31501 | 114.20405 | 38 ft | 49 kts | 134° |
| 2026-05-06 23:33 | 22.31373 | 114.20548 | 38 ft | 36 kts | 134° |
| 2026-05-06 23:33 | 22.33180 | 114.17799 | 382 ft | 118 kts | 90° |
| 2026-05-06 23:34 | 22.33161 | 114.18221 | 333 ft | 128 kts | 94° |
| 2026-05-06 23:34 | 22.32925 | 114.18793 | 277 ft | 130 kts | 126° |
| 2026-05-06 23:34 | 22.32513 | 114.19284 | 150 ft | 133 kts | 136° |
| 2026-05-06 23:34 | 22.32124 | 114.19705 | 62 ft | 129 kts | 131° |
| 2026-05-06 23:35 | 22.31747 | 114.20133 | 39 ft | 105 kts | 134° |
| 2026-05-06 23:35 | 22.33170 | 114.17365 | 409 ft | 122 kts | 85° |
| 2026-05-06 23:35 | 22.33173 | 114.17418 | 401 ft | 128 kts | 86° |
| 2026-05-06 23:35 | 22.33175 | 114.18018 | 358 ft | 130 kts | 90° |
| 2026-05-06 23:36 | 22.33051 | 114.18590 | 305 ft | 127 kts | 118° |
| 2026-05-06 23:36 | 22.32716 | 114.19067 | 220 ft | 132 kts | 133° |
| 2026-05-06 23:36 | 22.32438 | 114.19364 | 103 ft | 133 kts | 134° |
| 2026-05-06 23:36 | 22.33178 | 114.17538 | 396 ft | 115 kts | 87° |
| 2026-05-06 23:37 | 22.33179 | 114.17587 | 394 ft | 128 kts | 88° |
| 2026-05-06 23:37 | 22.33180 | 114.17833 | 378 ft | 125 kts | 90° |
| 2026-05-06 23:37 | 22.33139 | 114.18354 | 319 ft | 127 kts | 101° |
| 2026-05-06 23:38 | 22.32865 | 114.18881 | 256 ft | 131 kts | 126° |
| 2026-05-06 23:38 | 22.32462 | 114.19339 | 136 ft | 133 kts | 134° |
| 2026-05-06 23:38 | 22.32056 | 114.19781 | 52 ft | 128 kts | 129° |
| 2026-05-06 23:38 | 22.33180 | 114.17713 | 388 ft | 128 kts | 90° |
| 2026-05-06 23:39 | 22.33157 | 114.17189 | 420 ft | 113 kts | 84° |
| 2026-05-06 23:39 | 22.33180 | 114.17734 | 386 ft | 128 kts | 91° |
| 2026-05-06 23:39 | 22.33141 | 114.18346 | 319 ft | 127 kts | 101° |
| 2026-05-06 23:39 | 22.32870 | 114.18874 | 257 ft | 131 kts | 126° |
| 2026-05-06 23:40 | 22.32454 | 114.19347 | 131 ft | 133 kts | 134° |
| 2026-05-06 23:40 | 22.32049 | 114.19790 | 49 ft | 127 kts | 129° |
| 2026-05-06 23:40 | 22.31690 | 114.20197 | 38 ft | 95 kts | 134° |
| 2026-05-06 23:40 | 22.31485 | 114.20423 | 38 ft | 43 kts | 134° |
| 2026-05-06 23:41 | 22.31380 | 114.20541 | 36 ft | 36 kts | 134° |
| 2026-05-06 23:41 | 22.31289 | 114.20642 | 38 ft | 14 kts | 134° |
| 2026-05-06 23:41 | 22.31273 | 114.20689 | 38 ft | 11 kts | 83° |
| 2026-05-06 23:41 | 22.31746 | 114.20134 | 38 ft | 105 kts | 134° |
| 2026-05-06 23:42 | 22.33180 | 114.17713 | 388 ft | 118 kts | 90° |
| 2026-05-06 23:42 | 22.33150 | 114.18301 | 324 ft | 128 kts | 98° |
| 2026-05-06 23:42 | 22.32892 | 114.18843 | 266 ft | 131 kts | 126° |
| 2026-05-06 23:42 | 22.32463 | 114.19338 | 136 ft | 133 kts | 134° |
| 2026-05-06 23:43 | 22.32075 | 114.19760 | 53 ft | 128 kts | 130° |
| 2026-05-06 23:43 | 22.31722 | 114.20161 | 37 ft | 100 kts | 134° |
| 2026-05-06 23:43 | 22.31507 | 114.20398 | 37 ft | 51 kts | 134° |
| 2026-05-06 23:43 | 22.31400 | 114.20517 | 37 ft | 36 kts | 134° |
| 2026-05-06 23:44 | 22.33157 | 114.17189 | 422 ft | 116 kts | 84° |
| 2026-05-06 23:44 | 22.33180 | 114.17753 | 384 ft | 129 kts | 91° |
| 2026-05-06 23:44 | 22.33138 | 114.18360 | 317 ft | 127 kts | 102° |
| 2026-05-06 23:45 | 22.32867 | 114.18879 | 256 ft | 131 kts | 126° |